sensor_id;sensor_type;location;lat;lon;timestamp;temperature;humidity
20200;DHT22;36284;37.236;-121.934;2023-07-13T00:01:54;29.20;99.90
20200;DHT22;36284;37.236;-121.934;2023-07-13T00:04:24;28.80;99.90
20200;DHT22;36284;37.236;-121.934;2023-07-13T00:06:54;28.60;99.90
20200;DHT22;36284;37.236;-121.934;2023-07-13T00:09:21;28.90;99.90
20200;DHT22;36284;37.236;-121.934;2023-07-13T00:11:54;29.20;99.90
20200;DHT22;36284;37.236;-121.934;2023-07-13T00:14:21;29.00;99.90
20200;DHT22;36284;37.236;-121.934;2023-07-13T00:16:48;29.30;99.90
20200;DHT22;36284;37.236;-121.934;2023-07-13T00:19:15;28.60;99.90
20200;DHT22;36284;37.236;-121.934;2023-07-13T00:21:42;28.70;99.90
20200;DHT22;36284;37.236;-121.934;2023-07-13T00:24:14;29.30;99.90
20200;DHT22;36284;37.236;-121.934;2023-07-13T00:26:42;29.00;99.90
20200;DHT22;36284;37.236;-121.934;2023-07-13T00:29:12;28.60;99.90
20200;DHT22;36284;37.236;-121.934;2023-07-13T00:31:40;28.90;99.90
20200;DHT22;36284;37.236;-121.934;2023-07-13T00:34:07;28.80;99.90
20200;DHT22;36284;37.236;-121.934;2023-07-13T00:36:34;28.70;99.90
20200;DHT22;36284;37.236;-121.934;2023-07-13T00:39:01;28.30;99.90
20200;DHT22;36284;37.236;-121.934;2023-07-13T00:41:28;28.20;99.90
20200;DHT22;36284;37.236;-121.934;2023-07-13T00:43:55;28.50;99.90
20200;DHT22;36284;37.236;-121.934;2023-07-13T00:46:30;28.30;99.90
20200;DHT22;36284;37.236;-121.934;2023-07-13T00:49:05;28.20;99.90
20200;DHT22;36284;37.236;-121.934;2023-07-13T00:51:39;27.70;99.90
20200;DHT22;36284;37.236;-121.934;2023-07-13T00:54:11;27.80;99.90
20200;DHT22;36284;37.236;-121.934;2023-07-13T00:56:41;27.80;99.90
20200;DHT22;36284;37.236;-121.934;2023-07-13T00:59:11;27.30;99.90
20200;DHT22;36284;37.236;-121.934;2023-07-13T01:01:40;26.70;99.90
20200;DHT22;36284;37.236;-121.934;2023-07-13T01:04:07;27.00;99.90
20200;DHT22;36284;37.236;-121.934;2023-07-13T01:06:36;27.30;99.90
20200;DHT22;36284;37.236;-121.934;2023-07-13T01:09:07;26.90;99.90
20200;DHT22;36284;37.236;-121.934;2023-07-13T01:11:34;27.00;99.90
20200;DHT22;36284;37.236;-121.934;2023-07-13T01:14:02;26.90;99.90
20200;DHT22;36284;37.236;-121.934;2023-07-13T01:16:35;26.60;99.90
20200;DHT22;36284;37.236;-121.934;2023-07-13T01:19:19;26.30;99.90
20200;DHT22;36284;37.236;-121.934;2023-07-13T01:21:53;26.60;99.90
20200;DHT22;36284;37.236;-121.934;2023-07-13T01:24:20;26.40;99.90
20200;DHT22;36284;37.236;-121.934;2023-07-13T01:26:47;26.40;99.90
20200;DHT22;36284;37.236;-121.934;2023-07-13T01:29:14;26.30;99.90
20200;DHT22;36284;37.236;-121.934;2023-07-13T01:31:41;25.90;99.90
20200;DHT22;36284;37.236;-121.934;2023-07-13T01:34:08;25.70;99.90
20200;DHT22;36284;37.236;-121.934;2023-07-13T01:36:35;25.50;99.90
20200;DHT22;36284;37.236;-121.934;2023-07-13T01:39:03;25.30;99.90
20200;DHT22;36284;37.236;-121.934;2023-07-13T01:41:30;25.50;99.90
20200;DHT22;36284;37.236;-121.934;2023-07-13T01:43:57;25.70;99.90
20200;DHT22;36284;37.236;-121.934;2023-07-13T01:46:24;25.10;99.90
20200;DHT22;36284;37.236;-121.934;2023-07-13T01:48:51;25.30;99.90
20200;DHT22;36284;37.236;-121.934;2023-07-13T01:51:19;25.10;99.90
20200;DHT22;36284;37.236;-121.934;2023-07-13T01:53:47;25.30;99.90
20200;DHT22;36284;37.236;-121.934;2023-07-13T01:56:14;25.20;99.90
20200;DHT22;36284;37.236;-121.934;2023-07-13T01:58:41;25.30;99.90
20200;DHT22;36284;37.236;-121.934;2023-07-13T02:01:08;25.10;99.90
20200;DHT22;36284;37.236;-121.934;2023-07-13T02:03:35;24.50;99.90
20200;DHT22;36284;37.236;-121.934;2023-07-13T02:06:02;24.80;99.90
20200;DHT22;36284;37.236;-121.934;2023-07-13T02:08:32;24.50;99.90
20200;DHT22;36284;37.236;-121.934;2023-07-13T02:11:00;24.60;99.90
20200;DHT22;36284;37.236;-121.934;2023-07-13T02:13:29;24.70;99.90
20200;DHT22;36284;37.236;-121.934;2023-07-13T02:15:56;24.60;99.90
20200;DHT22;36284;37.236;-121.934;2023-07-13T02:18:23;24.30;99.90
20200;DHT22;36284;37.236;-121.934;2023-07-13T02:20:50;24.30;99.90
20200;DHT22;36284;37.236;-121.934;2023-07-13T02:23:17;24.10;99.90
20200;DHT22;36284;37.236;-121.934;2023-07-13T02:25:45;24.20;99.90
20200;DHT22;36284;37.236;-121.934;2023-07-13T02:28:12;24.10;99.90
20200;DHT22;36284;37.236;-121.934;2023-07-13T02:30:39;23.80;99.90
20200;DHT22;36284;37.236;-121.934;2023-07-13T02:33:06;23.50;99.90
20200;DHT22;36284;37.236;-121.934;2023-07-13T02:35:33;23.80;99.90
20200;DHT22;36284;37.236;-121.934;2023-07-13T02:38:00;23.60;99.90
20200;DHT22;36284;37.236;-121.934;2023-07-13T02:40:27;23.40;99.90
20200;DHT22;36284;37.236;-121.934;2023-07-13T02:42:54;23.20;99.90
20200;DHT22;36284;37.236;-121.934;2023-07-13T02:45:22;23.20;99.90
20200;DHT22;36284;37.236;-121.934;2023-07-13T02:47:49;22.80;99.90
20200;DHT22;36284;37.236;-121.934;2023-07-13T02:50:16;22.90;99.90
20200;DHT22;36284;37.236;-121.934;2023-07-13T02:52:43;22.70;99.90
20200;DHT22;36284;37.236;-121.934;2023-07-13T02:55:10;22.60;99.90
20200;DHT22;36284;37.236;-121.934;2023-07-13T02:57:37;22.50;99.90
20200;DHT22;36284;37.236;-121.934;2023-07-13T03:00:05;22.50;99.90
20200;DHT22;36284;37.236;-121.934;2023-07-13T03:02:33;22.40;99.90
20200;DHT22;36284;37.236;-121.934;2023-07-13T03:05:01;22.20;99.90
20200;DHT22;36284;37.236;-121.934;2023-07-13T03:07:30;22.00;99.90
20200;DHT22;36284;37.236;-121.934;2023-07-13T03:09:58;21.90;99.90
20200;DHT22;36284;37.236;-121.934;2023-07-13T03:12:25;21.70;99.90
20200;DHT22;36284;37.236;-121.934;2023-07-13T03:14:52;21.60;99.90
20200;DHT22;36284;37.236;-121.934;2023-07-13T03:17:19;21.50;99.90
20200;DHT22;36284;37.236;-121.934;2023-07-13T03:19:46;21.30;99.90
20200;DHT22;36284;37.236;-121.934;2023-07-13T03:22:17;21.20;99.90
20200;DHT22;36284;37.236;-121.934;2023-07-13T03:24:45;21.20;99.90
20200;DHT22;36284;37.236;-121.934;2023-07-13T03:27:12;21.10;99.90
20200;DHT22;36284;37.236;-121.934;2023-07-13T03:29:39;20.90;99.90
20200;DHT22;36284;37.236;-121.934;2023-07-13T03:32:06;20.80;99.90
20200;DHT22;36284;37.236;-121.934;2023-07-13T03:34:33;20.70;99.90
20200;DHT22;36284;37.236;-121.934;2023-07-13T03:37:00;20.60;99.90
20200;DHT22;36284;37.236;-121.934;2023-07-13T03:39:27;20.60;99.90
20200;DHT22;36284;37.236;-121.934;2023-07-13T03:41:55;20.50;99.90
20200;DHT22;36284;37.236;-121.934;2023-07-13T03:44:22;20.40;99.90
20200;DHT22;36284;37.236;-121.934;2023-07-13T03:46:49;20.30;99.90
20200;DHT22;36284;37.236;-121.934;2023-07-13T03:49:16;20.20;99.90
20200;DHT22;36284;37.236;-121.934;2023-07-13T03:51:43;20.10;99.90
20200;DHT22;36284;37.236;-121.934;2023-07-13T03:54:10;20.00;99.90
20200;DHT22;36284;37.236;-121.934;2023-07-13T03:56:37;20.10;99.90
20200;DHT22;36284;37.236;-121.934;2023-07-13T03:59:04;20.00;99.90
20200;DHT22;36284;37.236;-121.934;2023-07-13T04:01:31;19.90;99.90
20200;DHT22;36284;37.236;-121.934;2023-07-13T04:03:58;19.70;99.90
20200;DHT22;36284;37.236;-121.934;2023-07-13T04:06:30;19.70;99.90
20200;DHT22;36284;37.236;-121.934;2023-07-13T04:08:59;19.60;99.90
20200;DHT22;36284;37.236;-121.934;2023-07-13T04:11:29;19.50;99.90
20200;DHT22;36284;37.236;-121.934;2023-07-13T04:13:57;19.40;99.90
20200;DHT22;36284;37.236;-121.934;2023-07-13T04:16:25;19.30;99.90
20200;DHT22;36284;37.236;-121.934;2023-07-13T04:18:52;19.30;99.90
20200;DHT22;36284;37.236;-121.934;2023-07-13T04:21:30;19.30;99.90
20200;DHT22;36284;37.236;-121.934;2023-07-13T04:23:57;19.20;99.90
20200;DHT22;36284;37.236;-121.934;2023-07-13T04:26:24;19.10;99.90
20200;DHT22;36284;37.236;-121.934;2023-07-13T04:28:52;19.10;99.90
20200;DHT22;36284;37.236;-121.934;2023-07-13T04:31:19;18.90;99.90
20200;DHT22;36284;37.236;-121.934;2023-07-13T04:33:47;18.80;99.90
20200;DHT22;36284;37.236;-121.934;2023-07-13T04:36:14;18.70;99.90
20200;DHT22;36284;37.236;-121.934;2023-07-13T04:38:42;18.60;99.90
20200;DHT22;36284;37.236;-121.934;2023-07-13T04:41:09;18.50;99.90
20200;DHT22;36284;37.236;-121.934;2023-07-13T04:43:36;18.50;99.90
20200;DHT22;36284;37.236;-121.934;2023-07-13T04:46:06;18.30;99.90
20200;DHT22;36284;37.236;-121.934;2023-07-13T04:48:33;18.30;99.90
20200;DHT22;36284;37.236;-121.934;2023-07-13T04:51:01;18.20;99.90
20200;DHT22;36284;37.236;-121.934;2023-07-13T04:53:28;18.10;99.90
20200;DHT22;36284;37.236;-121.934;2023-07-13T04:55:56;18.00;99.90
20200;DHT22;36284;37.236;-121.934;2023-07-13T04:58:24;18.00;99.90
20200;DHT22;36284;37.236;-121.934;2023-07-13T05:00:51;17.90;99.90
20200;DHT22;36284;37.236;-121.934;2023-07-13T05:03:18;17.90;99.90
20200;DHT22;36284;37.236;-121.934;2023-07-13T05:05:55;17.70;99.90
20200;DHT22;36284;37.236;-121.934;2023-07-13T05:08:22;17.70;99.90
20200;DHT22;36284;37.236;-121.934;2023-07-13T05:10:50;17.70;99.90
20200;DHT22;36284;37.236;-121.934;2023-07-13T05:13:17;17.60;99.90
20200;DHT22;36284;37.236;-121.934;2023-07-13T05:15:45;17.60;99.90
20200;DHT22;36284;37.236;-121.934;2023-07-13T05:18:12;17.50;99.90
20200;DHT22;36284;37.236;-121.934;2023-07-13T05:20:38;17.50;99.90
20200;DHT22;36284;37.236;-121.934;2023-07-13T05:23:06;17.40;99.90
20200;DHT22;36284;37.236;-121.934;2023-07-13T05:25:33;17.30;99.90
20200;DHT22;36284;37.236;-121.934;2023-07-13T05:28:00;17.30;99.90
20200;DHT22;36284;37.236;-121.934;2023-07-13T05:30:27;17.20;99.90
20200;DHT22;36284;37.236;-121.934;2023-07-13T05:32:53;17.20;99.90
20200;DHT22;36284;37.236;-121.934;2023-07-13T05:35:20;17.20;99.90
20200;DHT22;36284;37.236;-121.934;2023-07-13T05:37:47;17.10;99.90
20200;DHT22;36284;37.236;-121.934;2023-07-13T05:40:14;17.00;99.90
20200;DHT22;36284;37.236;-121.934;2023-07-13T05:42:41;17.00;99.90
20200;DHT22;36284;37.236;-121.934;2023-07-13T05:45:08;16.80;99.90
20200;DHT22;36284;37.236;-121.934;2023-07-13T05:47:35;16.90;99.90
20200;DHT22;36284;37.236;-121.934;2023-07-13T05:50:02;16.70;99.90
20200;DHT22;36284;37.236;-121.934;2023-07-13T05:52:30;16.60;99.90
20200;DHT22;36284;37.236;-121.934;2023-07-13T05:54:57;16.60;99.90
20200;DHT22;36284;37.236;-121.934;2023-07-13T05:57:24;16.50;99.90
20200;DHT22;36284;37.236;-121.934;2023-07-13T05:59:50;16.60;99.90
20200;DHT22;36284;37.236;-121.934;2023-07-13T06:02:17;16.50;99.90
20200;DHT22;36284;37.236;-121.934;2023-07-13T06:04:44;16.40;99.90
20200;DHT22;36284;37.236;-121.934;2023-07-13T06:07:11;16.40;99.90
20200;DHT22;36284;37.236;-121.934;2023-07-13T06:09:38;16.40;99.90
20200;DHT22;36284;37.236;-121.934;2023-07-13T06:12:05;16.20;99.90
20200;DHT22;36284;37.236;-121.934;2023-07-13T06:14:32;16.40;99.90
20200;DHT22;36284;37.236;-121.934;2023-07-13T06:16:59;16.20;99.90
20200;DHT22;36284;37.236;-121.934;2023-07-13T06:19:26;16.10;99.90
20200;DHT22;36284;37.236;-121.934;2023-07-13T06:21:53;16.10;99.90
20200;DHT22;36284;37.236;-121.934;2023-07-13T06:24:21;16.00;99.90
20200;DHT22;36284;37.236;-121.934;2023-07-13T06:26:48;16.00;99.90
20200;DHT22;36284;37.236;-121.934;2023-07-13T06:29:15;16.00;99.90
20200;DHT22;36284;37.236;-121.934;2023-07-13T06:31:42;16.00;99.90
20200;DHT22;36284;37.236;-121.934;2023-07-13T06:34:09;16.00;99.90
20200;DHT22;36284;37.236;-121.934;2023-07-13T06:36:36;15.90;99.90
20200;DHT22;36284;37.236;-121.934;2023-07-13T06:39:06;15.80;99.90
20200;DHT22;36284;37.236;-121.934;2023-07-13T06:41:33;15.80;99.90
20200;DHT22;36284;37.236;-121.934;2023-07-13T06:44:00;15.80;99.90
20200;DHT22;36284;37.236;-121.934;2023-07-13T06:46:29;15.80;99.90
20200;DHT22;36284;37.236;-121.934;2023-07-13T06:48:56;15.70;99.90
20200;DHT22;36284;37.236;-121.934;2023-07-13T06:51:23;15.70;99.90
20200;DHT22;36284;37.236;-121.934;2023-07-13T06:53:50;15.70;99.90
20200;DHT22;36284;37.236;-121.934;2023-07-13T06:56:17;15.70;99.90
20200;DHT22;36284;37.236;-121.934;2023-07-13T06:58:44;15.80;99.90
20200;DHT22;36284;37.236;-121.934;2023-07-13T07:01:11;15.70;99.90
20200;DHT22;36284;37.236;-121.934;2023-07-13T07:03:38;15.70;99.90
20200;DHT22;36284;37.236;-121.934;2023-07-13T07:06:23;15.60;99.90
20200;DHT22;36284;37.236;-121.934;2023-07-13T07:08:51;15.60;99.90
20200;DHT22;36284;37.236;-121.934;2023-07-13T07:11:25;15.50;99.90
20200;DHT22;36284;37.236;-121.934;2023-07-13T07:13:53;15.40;99.90
20200;DHT22;36284;37.236;-121.934;2023-07-13T07:16:20;15.50;99.90
20200;DHT22;36284;37.236;-121.934;2023-07-13T07:18:47;15.50;99.90
20200;DHT22;36284;37.236;-121.934;2023-07-13T07:21:15;15.40;99.90
20200;DHT22;36284;37.236;-121.934;2023-07-13T07:23:43;15.40;99.90
20200;DHT22;36284;37.236;-121.934;2023-07-13T07:26:10;15.40;99.90
20200;DHT22;36284;37.236;-121.934;2023-07-13T07:28:38;15.40;99.90
20200;DHT22;36284;37.236;-121.934;2023-07-13T07:31:05;15.40;99.90
20200;DHT22;36284;37.236;-121.934;2023-07-13T07:33:33;15.40;99.90
20200;DHT22;36284;37.236;-121.934;2023-07-13T07:36:01;15.40;99.90
20200;DHT22;36284;37.236;-121.934;2023-07-13T07:38:28;15.20;99.90
20200;DHT22;36284;37.236;-121.934;2023-07-13T07:40:55;15.20;99.90
20200;DHT22;36284;37.236;-121.934;2023-07-13T07:43:22;15.10;99.90
20200;DHT22;36284;37.236;-121.934;2023-07-13T07:45:49;15.10;99.90
20200;DHT22;36284;37.236;-121.934;2023-07-13T07:48:16;15.20;99.90
20200;DHT22;36284;37.236;-121.934;2023-07-13T07:50:43;15.20;99.90
20200;DHT22;36284;37.236;-121.934;2023-07-13T07:53:11;15.20;99.90
20200;DHT22;36284;37.236;-121.934;2023-07-13T07:55:39;15.00;99.90
20200;DHT22;36284;37.236;-121.934;2023-07-13T07:58:06;14.90;99.90
20200;DHT22;36284;37.236;-121.934;2023-07-13T08:00:33;14.80;99.90
20200;DHT22;36284;37.236;-121.934;2023-07-13T08:03:02;14.80;99.90
20200;DHT22;36284;37.236;-121.934;2023-07-13T08:05:29;14.80;99.90
20200;DHT22;36284;37.236;-121.934;2023-07-13T08:07:56;14.90;99.90
20200;DHT22;36284;37.236;-121.934;2023-07-13T08:10:23;14.90;99.90
20200;DHT22;36284;37.236;-121.934;2023-07-13T08:12:51;14.80;99.90
20200;DHT22;36284;37.236;-121.934;2023-07-13T08:15:18;14.70;99.90
20200;DHT22;36284;37.236;-121.934;2023-07-13T08:17:49;14.70;99.90
20200;DHT22;36284;37.236;-121.934;2023-07-13T08:20:16;14.60;99.90
20200;DHT22;36284;37.236;-121.934;2023-07-13T08:22:43;14.50;99.90
20200;DHT22;36284;37.236;-121.934;2023-07-13T08:25:10;14.50;99.90
20200;DHT22;36284;37.236;-121.934;2023-07-13T08:27:37;14.60;99.90
20200;DHT22;36284;37.236;-121.934;2023-07-13T08:30:05;14.50;99.90
20200;DHT22;36284;37.236;-121.934;2023-07-13T08:32:32;14.60;99.90
20200;DHT22;36284;37.236;-121.934;2023-07-13T08:34:59;14.60;99.90
20200;DHT22;36284;37.236;-121.934;2023-07-13T08:37:26;14.60;99.90
20200;DHT22;36284;37.236;-121.934;2023-07-13T08:39:53;14.50;99.90
20200;DHT22;36284;37.236;-121.934;2023-07-13T08:47:34;14.50;99.90
20200;DHT22;36284;37.236;-121.934;2023-07-13T08:50:03;14.40;99.90
20200;DHT22;36284;37.236;-121.934;2023-07-13T08:52:36;14.40;99.90
20200;DHT22;36284;37.236;-121.934;2023-07-13T08:55:31;14.40;99.90
20200;DHT22;36284;37.236;-121.934;2023-07-13T08:58:12;14.30;99.90
20200;DHT22;36284;37.236;-121.934;2023-07-13T09:03:31;14.40;99.90
20200;DHT22;36284;37.236;-121.934;2023-07-13T09:06:03;14.30;99.90
20200;DHT22;36284;37.236;-121.934;2023-07-13T09:17:02;14.10;99.90
20200;DHT22;36284;37.236;-121.934;2023-07-13T09:19:31;14.10;99.90
20200;DHT22;36284;37.236;-121.934;2023-07-13T09:22:02;14.10;99.90
20200;DHT22;36284;37.236;-121.934;2023-07-13T09:24:38;14.10;99.90
20200;DHT22;36284;37.236;-121.934;2023-07-13T09:27:21;14.10;99.90
20200;DHT22;36284;37.236;-121.934;2023-07-13T09:30:08;14.10;99.90
20200;DHT22;36284;37.236;-121.934;2023-07-13T09:32:41;14.10;99.90
20200;DHT22;36284;37.236;-121.934;2023-07-13T09:35:22;14.10;99.90
20200;DHT22;36284;37.236;-121.934;2023-07-13T09:37:49;14.00;99.90
20200;DHT22;36284;37.236;-121.934;2023-07-13T09:43:14;14.00;99.90
20200;DHT22;36284;37.236;-121.934;2023-07-13T09:45:45;14.00;99.90
20200;DHT22;36284;37.236;-121.934;2023-07-13T09:48:15;13.90;99.90
20200;DHT22;36284;37.236;-121.934;2023-07-13T09:50:43;13.90;99.90
20200;DHT22;36284;37.236;-121.934;2023-07-13T09:53:15;13.90;99.90
20200;DHT22;36284;37.236;-121.934;2023-07-13T09:55:44;13.90;99.90
20200;DHT22;36284;37.236;-121.934;2023-07-13T10:00:54;13.90;99.90
20200;DHT22;36284;37.236;-121.934;2023-07-13T10:03:28;13.80;99.90
20200;DHT22;36284;37.236;-121.934;2023-07-13T10:06:06;13.80;99.90
20200;DHT22;36284;37.236;-121.934;2023-07-13T10:08:37;13.80;99.90
20200;DHT22;36284;37.236;-121.934;2023-07-13T10:11:28;13.70;99.90
20200;DHT22;36284;37.236;-121.934;2023-07-13T10:14:02;13.60;99.90
20200;DHT22;36284;37.236;-121.934;2023-07-13T10:16:32;13.70;99.90
20200;DHT22;36284;37.236;-121.934;2023-07-13T10:19:10;13.70;99.90
20200;DHT22;36284;37.236;-121.934;2023-07-13T10:24:38;13.70;99.90
20200;DHT22;36284;37.236;-121.934;2023-07-13T10:29:53;13.60;99.90
20200;DHT22;36284;37.236;-121.934;2023-07-13T10:32:24;13.60;99.90
20200;DHT22;36284;37.236;-121.934;2023-07-13T10:34:51;13.60;99.90
20200;DHT22;36284;37.236;-121.934;2023-07-13T10:37:30;13.60;99.90
20200;DHT22;36284;37.236;-121.934;2023-07-13T10:40:04;13.70;99.90
20200;DHT22;36284;37.236;-121.934;2023-07-13T10:42:39;13.60;99.90
20200;DHT22;36284;37.236;-121.934;2023-07-13T10:45:18;13.50;99.90
20200;DHT22;36284;37.236;-121.934;2023-07-13T10:47:46;13.50;99.90
20200;DHT22;36284;37.236;-121.934;2023-07-13T10:50:19;13.50;99.90
20200;DHT22;36284;37.236;-121.934;2023-07-13T10:52:51;13.60;99.90
20200;DHT22;36284;37.236;-121.934;2023-07-13T10:55:40;13.50;99.90
20200;DHT22;36284;37.236;-121.934;2023-07-13T11:00:57;13.60;99.90
20200;DHT22;36284;37.236;-121.934;2023-07-13T11:03:27;13.40;99.90
20200;DHT22;36284;37.236;-121.934;2023-07-13T11:09:03;13.40;99.90
20200;DHT22;36284;37.236;-121.934;2023-07-13T11:11:43;13.40;99.90
20200;DHT22;36284;37.236;-121.934;2023-07-13T11:16:57;13.50;99.90
20200;DHT22;36284;37.236;-121.934;2023-07-13T11:19:28;13.40;99.90
20200;DHT22;36284;37.236;-121.934;2023-07-13T11:33:22;13.00;99.90
20200;DHT22;36284;37.236;-121.934;2023-07-13T11:36:31;12.90;99.90
20200;DHT22;36284;37.236;-121.934;2023-07-13T11:39:15;13.00;99.90
20200;DHT22;36284;37.236;-121.934;2023-07-13T11:41:57;13.20;99.90
20200;DHT22;36284;37.236;-121.934;2023-07-13T11:44:26;13.20;99.90
20200;DHT22;36284;37.236;-121.934;2023-07-13T11:46:58;13.30;99.90
20200;DHT22;36284;37.236;-121.934;2023-07-13T11:49:31;13.10;99.90
20200;DHT22;36284;37.236;-121.934;2023-07-13T11:51:59;12.90;99.90
20200;DHT22;36284;37.236;-121.934;2023-07-13T11:54:31;12.90;99.90
20200;DHT22;36284;37.236;-121.934;2023-07-13T11:59:52;12.80;99.90
20200;DHT22;36284;37.236;-121.934;2023-07-13T12:02:40;12.90;99.90
20200;DHT22;36284;37.236;-121.934;2023-07-13T12:05:11;13.00;99.90
20200;DHT22;36284;37.236;-121.934;2023-07-13T12:07:40;12.80;99.90
20200;DHT22;36284;37.236;-121.934;2023-07-13T12:12:37;12.80;99.90
20200;DHT22;36284;37.236;-121.934;2023-07-13T12:15:08;12.90;99.90
20200;DHT22;36284;37.236;-121.934;2023-07-13T12:17:35;12.90;99.90
20200;DHT22;36284;37.236;-121.934;2023-07-13T12:20:21;13.00;99.90
20200;DHT22;36284;37.236;-121.934;2023-07-13T12:22:50;13.10;99.90
20200;DHT22;36284;37.236;-121.934;2023-07-13T12:25:19;13.00;99.90
20200;DHT22;36284;37.236;-121.934;2023-07-13T12:27:50;13.00;99.90
20200;DHT22;36284;37.236;-121.934;2023-07-13T12:33:08;12.90;99.90
20200;DHT22;36284;37.236;-121.934;2023-07-13T12:35:46;13.00;99.90
20200;DHT22;36284;37.236;-121.934;2023-07-13T12:38:15;13.00;99.90
20200;DHT22;36284;37.236;-121.934;2023-07-13T12:40:42;13.00;99.90
20200;DHT22;36284;37.236;-121.934;2023-07-13T12:43:13;13.10;99.90
20200;DHT22;36284;37.236;-121.934;2023-07-13T12:45:55;13.00;99.90
20200;DHT22;36284;37.236;-121.934;2023-07-13T12:48:23;12.90;99.90
20200;DHT22;36284;37.236;-121.934;2023-07-13T12:50:50;12.90;99.90
20200;DHT22;36284;37.236;-121.934;2023-07-13T12:53:21;12.90;99.90
20200;DHT22;36284;37.236;-121.934;2023-07-13T12:55:59;13.00;99.90
20200;DHT22;36284;37.236;-121.934;2023-07-13T12:58:41;12.90;99.90
20200;DHT22;36284;37.236;-121.934;2023-07-13T13:01:10;12.90;99.90
20200;DHT22;36284;37.236;-121.934;2023-07-13T13:03:48;12.90;99.90
20200;DHT22;36284;37.236;-121.934;2023-07-13T13:08:50;13.00;99.90
20200;DHT22;36284;37.236;-121.934;2023-07-13T13:11:23;12.90;99.90
20200;DHT22;36284;37.236;-121.934;2023-07-13T13:13:50;12.90;99.90
20200;DHT22;36284;37.236;-121.934;2023-07-13T13:16:26;12.90;99.90
20200;DHT22;36284;37.236;-121.934;2023-07-13T13:19:00;12.90;99.90
20200;DHT22;36284;37.236;-121.934;2023-07-13T13:21:28;12.90;99.90
20200;DHT22;36284;37.236;-121.934;2023-07-13T13:23:55;13.00;99.90
20200;DHT22;36284;37.236;-121.934;2023-07-13T13:26:22;13.20;99.90
20200;DHT22;36284;37.236;-121.934;2023-07-13T13:28:49;13.30;99.90
20200;DHT22;36284;37.236;-121.934;2023-07-13T13:31:16;13.30;99.90
20200;DHT22;36284;37.236;-121.934;2023-07-13T13:33:45;13.50;99.90
20200;DHT22;36284;37.236;-121.934;2023-07-13T13:36:21;13.60;99.90
20200;DHT22;36284;37.236;-121.934;2023-07-13T13:38:49;13.70;99.90
20200;DHT22;36284;37.236;-121.934;2023-07-13T13:41:17;13.80;99.90
20200;DHT22;36284;37.236;-121.934;2023-07-13T13:43:44;13.90;99.90
20200;DHT22;36284;37.236;-121.934;2023-07-13T13:46:22;14.00;99.90
20200;DHT22;36284;37.236;-121.934;2023-07-13T13:48:55;14.20;99.90
20200;DHT22;36284;37.236;-121.934;2023-07-13T13:51:24;14.60;99.90
20200;DHT22;36284;37.236;-121.934;2023-07-13T13:53:51;14.90;99.90
20200;DHT22;36284;37.236;-121.934;2023-07-13T13:56:20;15.00;99.90
20200;DHT22;36284;37.236;-121.934;2023-07-13T13:58:47;15.00;99.90
20200;DHT22;36284;37.236;-121.934;2023-07-13T14:01:18;15.40;99.90
20200;DHT22;36284;37.236;-121.934;2023-07-13T14:03:45;16.80;99.90
20200;DHT22;36284;37.236;-121.934;2023-07-13T14:06:15;18.20;99.90
20200;DHT22;36284;37.236;-121.934;2023-07-13T14:08:43;18.80;99.90
20200;DHT22;36284;37.236;-121.934;2023-07-13T14:11:14;18.50;99.90
20200;DHT22;36284;37.236;-121.934;2023-07-13T14:13:49;19.10;99.90
20200;DHT22;36284;37.236;-121.934;2023-07-13T14:16:18;18.80;99.90
20200;DHT22;36284;37.236;-121.934;2023-07-13T14:18:46;17.90;99.90
20200;DHT22;36284;37.236;-121.934;2023-07-13T14:21:16;17.80;99.90
20200;DHT22;36284;37.236;-121.934;2023-07-13T14:23:45;17.90;99.90
20200;DHT22;36284;37.236;-121.934;2023-07-13T14:26:14;18.30;99.90
20200;DHT22;36284;37.236;-121.934;2023-07-13T14:28:44;18.60;99.90
20200;DHT22;36284;37.236;-121.934;2023-07-13T14:31:13;19.10;99.90
20200;DHT22;36284;37.236;-121.934;2023-07-13T14:33:40;19.60;99.90
20200;DHT22;36284;37.236;-121.934;2023-07-13T14:36:29;21.10;99.90
20200;DHT22;36284;37.236;-121.934;2023-07-13T14:39:22;22.70;99.90
20200;DHT22;36284;37.236;-121.934;2023-07-13T14:41:56;22.80;99.90
20200;DHT22;36284;37.236;-121.934;2023-07-13T14:44:31;23.10;99.90
20200;DHT22;36284;37.236;-121.934;2023-07-13T14:47:00;22.90;99.90
20200;DHT22;36284;37.236;-121.934;2023-07-13T14:52:05;23.40;99.90
20200;DHT22;36284;37.236;-121.934;2023-07-13T14:54:37;23.80;99.90
20200;DHT22;36284;37.236;-121.934;2023-07-13T14:57:11;24.90;99.90
20200;DHT22;36284;37.236;-121.934;2023-07-13T14:59:39;24.30;99.90
20200;DHT22;36284;37.236;-121.934;2023-07-13T15:04:49;25.10;99.90
20200;DHT22;36284;37.236;-121.934;2023-07-13T15:07:16;23.60;99.90
20200;DHT22;36284;37.236;-121.934;2023-07-13T15:09:45;23.50;99.90
20200;DHT22;36284;37.236;-121.934;2023-07-13T15:12:12;23.00;99.90
20200;DHT22;36284;37.236;-121.934;2023-07-13T15:14:39;23.50;99.90
20200;DHT22;36284;37.236;-121.934;2023-07-13T15:17:28;22.50;99.90
20200;DHT22;36284;37.236;-121.934;2023-07-13T15:19:57;23.20;99.90
20200;DHT22;36284;37.236;-121.934;2023-07-13T15:22:25;23.20;99.90
20200;DHT22;36284;37.236;-121.934;2023-07-13T15:24:52;23.30;99.90
20200;DHT22;36284;37.236;-121.934;2023-07-13T15:27:19;22.90;99.90
20200;DHT22;36284;37.236;-121.934;2023-07-13T15:29:46;24.00;99.90
20200;DHT22;36284;37.236;-121.934;2023-07-13T15:32:14;23.80;99.90
20200;DHT22;36284;37.236;-121.934;2023-07-13T15:34:41;23.90;99.90
20200;DHT22;36284;37.236;-121.934;2023-07-13T15:37:14;24.20;99.90
20200;DHT22;36284;37.236;-121.934;2023-07-13T15:39:41;23.90;99.90
20200;DHT22;36284;37.236;-121.934;2023-07-13T15:42:20;24.30;99.90
20200;DHT22;36284;37.236;-121.934;2023-07-13T15:44:47;23.90;99.90
20200;DHT22;36284;37.236;-121.934;2023-07-13T15:47:14;24.50;99.90
20200;DHT22;36284;37.236;-121.934;2023-07-13T15:49:42;24.60;99.90
20200;DHT22;36284;37.236;-121.934;2023-07-13T15:52:17;24.40;99.90
20200;DHT22;36284;37.236;-121.934;2023-07-13T15:54:47;25.00;99.90
20200;DHT22;36284;37.236;-121.934;2023-07-13T15:57:14;25.30;99.90
20200;DHT22;36284;37.236;-121.934;2023-07-13T15:59:42;25.00;99.90
20200;DHT22;36284;37.236;-121.934;2023-07-13T16:02:17;25.50;99.90
20200;DHT22;36284;37.236;-121.934;2023-07-13T16:04:45;25.50;99.90
20200;DHT22;36284;37.236;-121.934;2023-07-13T16:07:14;26.30;99.90